»·PEaware :: SWA669 KLAX-KPHX

SWA669 :: KLAX-KPHX

FLIGHT INFORMATION

Flight Status: Arrived
Operator:
Southwest Airlines
More flights by this operator :: More flights under this callsign
Pilot: Cody B. (17747)
Aircraft: BOEING 737-800
(B738)
More flights by this aircraft type
Origin: KLAX Los Angeles Intl
United States
Destination: KPHX Phoenix Sky Harbor Intl
United States
More flights between these airports :: More routes between these airports
Route: +DOTSS2 CNERY BLH HYDRR1
File this flight plan on PilotEdge
Remarks:
Altitude:
(Current/Filed)
33,000ft
Speed:
(Current/Filed)
463kts
Departed: 06-Jul-18 12:18 PM
Arrived: 06-Jul-18 01:22 PM
Distance/Time
Traveled:
321nm/1:04
Distance/Time
To Go:
Arrived

Flight Plot

Page will automatically refresh every two minutes.

Flight plan parsing failed; only flown route is shown


Map Options




Map Legend


Flown Route
Filed Route
Departure Airport
Arrival Airport
Navaid (VOR, NDB)
Fix

Horizontal Profiles

Position Reports

Time Latitude Longitude Heading Altitude Ground
Speed
06-Jul-18 11:19 33.947887 -118.400700 222 133ft 0kts
06-Jul-18 11:20 33.947887 -118.400700 222 133ft 0kts
06-Jul-18 11:21 33.947887 -118.400700 222 133ft 0kts
06-Jul-18 11:22 33.947887 -118.400700 222 133ft 0kts
06-Jul-18 11:23 33.947887 -118.400700 222 133ft 0kts
06-Jul-18 11:24 33.947887 -118.400699 222 133ft 0kts
06-Jul-18 11:25 33.947887 -118.400699 222 132ft 0kts
06-Jul-18 11:26 33.947887 -118.400700 222 132ft 0kts
06-Jul-18 11:27 33.947887 -118.400700 222 132ft 0kts
06-Jul-18 11:28 33.947887 -118.400700 222 132ft 0kts
06-Jul-18 11:29 33.947887 -118.400700 222 132ft 0kts
06-Jul-18 11:30 33.947887 -118.400700 222 132ft 0kts
06-Jul-18 11:31 33.947887 -118.400700 222 132ft 0kts
06-Jul-18 11:32 33.947887 -118.400700 222 132ft 0kts
06-Jul-18 11:33 33.947887 -118.400700 222 132ft 0kts
06-Jul-18 11:34 33.947887 -118.400700 222 132ft 0kts
06-Jul-18 11:35 33.947887 -118.400700 222 132ft 0kts
06-Jul-18 11:36 33.947887 -118.400700 222 132ft 0kts
06-Jul-18 11:37 33.947887 -118.400700 222 132ft 0kts
06-Jul-18 11:38 33.947887 -118.400700 222 132ft 0kts
06-Jul-18 11:39 33.947887 -118.400700 222 132ft 0kts
06-Jul-18 11:40 33.947887 -118.400700 222 132ft 0kts
06-Jul-18 11:41 33.947887 -118.400700 222 132ft 0kts
06-Jul-18 11:42 33.947887 -118.400700 222 132ft 0kts
06-Jul-18 11:43 33.947887 -118.400700 222 132ft 0kts
06-Jul-18 11:44 33.947887 -118.400700 222 132ft 0kts
06-Jul-18 11:45 33.947887 -118.400700 222 132ft 0kts
06-Jul-18 11:46 33.947887 -118.400700 222 132ft 0kts
06-Jul-18 11:47 33.947887 -118.400700 222 132ft 0kts
06-Jul-18 11:48 33.947887 -118.400700 222 132ft 0kts
06-Jul-18 11:49 33.947887 -118.400700 222 132ft 0kts
06-Jul-18 11:50 33.947887 -118.400700 222 132ft 0kts
06-Jul-18 11:51 33.947887 -118.400700 222 132ft 0kts
06-Jul-18 11:52 33.947887 -118.400700 222 132ft 0kts
06-Jul-18 11:53 33.947887 -118.400700 222 132ft 0kts
06-Jul-18 11:54 33.947887 -118.400700 222 132ft 0kts
06-Jul-18 11:55 33.947887 -118.400700 222 132ft 0kts
06-Jul-18 11:56 33.947887 -118.400700 222 132ft 0kts
06-Jul-18 11:57 33.947887 -118.400700 222 132ft 0kts
06-Jul-18 11:58 33.947887 -118.400700 222 132ft 0kts
06-Jul-18 11:59 33.947887 -118.400700 222 132ft 0kts
06-Jul-18 12:00 33.947887 -118.400700 222 132ft 0kts
06-Jul-18 12:01 33.947887 -118.400700 222 132ft 0kts
06-Jul-18 12:02 33.947887 -118.400700 222 132ft 0kts
06-Jul-18 12:03 33.947887 -118.400700 222 132ft 0kts
06-Jul-18 12:04 33.947887 -118.400700 222 132ft 0kts
06-Jul-18 12:05 33.947887 -118.400700 222 132ft 0kts
06-Jul-18 12:06 33.947887 -118.400700 222 132ft 0kts
06-Jul-18 12:07 33.947887 -118.400700 222 132ft 0kts
06-Jul-18 12:08 33.947887 -118.400700 222 132ft 0kts
06-Jul-18 12:09 33.947887 -118.400700 222 132ft 0kts
06-Jul-18 12:10 33.947887 -118.400700 222 132ft 0kts
06-Jul-18 12:11 33.947887 -118.400699 222 133ft 0kts
06-Jul-18 12:12 33.948169 -118.400385 224 133ft 2kts
06-Jul-18 12:13 33.947967 -118.400029 4 133ft 1kts
06-Jul-18 12:14 33.947959 -118.400029 4 133ft 0kts
06-Jul-18 12:15 33.947959 -118.400029 4 133ft 0kts
06-Jul-18 12:16 33.948529 -118.400411 312 132ft 7kts
06-Jul-18 12:17 33.949440 -118.401648 327 133ft 0kts
06-Jul-18 12:18 33.949755 -118.401739 346 133ft 5kts
06-Jul-18 12:19 33.949108 -118.412420 263 133ft 119kts
06-Jul-18 12:20 33.943361 -118.469652 266 2065ft 188kts
06-Jul-18 12:21 33.940782 -118.537350 264 4418ft 215kts
06-Jul-18 12:22 33.932573 -118.614714 238 6410ft 254kts
06-Jul-18 12:23 33.866632 -118.637732 177 8735ft 274kts
06-Jul-18 12:24 33.796437 -118.601129 147 11015ft 297kts
06-Jul-18 12:25 33.724696 -118.542952 147 13148ft 319kts
06-Jul-18 12:26 33.677184 -118.453792 112 15461ft 335kts
06-Jul-18 12:27 33.645936 -118.347342 106 16874ft 343kts
06-Jul-18 12:28 33.643154 -118.233227 91 16889ft 345kts
06-Jul-18 12:29 33.643561 -118.118564 92 18448ft 349kts
06-Jul-18 12:29 33.643721 -118.023461 92 19974ft 358kts
06-Jul-18 12:30 33.643700 -117.903750 92 21723ft 367kts
06-Jul-18 12:31 33.639808 -117.780724 105 23293ft 374kts
06-Jul-18 12:32 33.610924 -117.660429 107 24794ft 382kts
06-Jul-18 12:33 33.580614 -117.537688 108 26122ft 391kts
06-Jul-18 12:34 33.549420 -117.411911 108 27365ft 399kts
06-Jul-18 12:35 33.517747 -117.284924 108 28494ft 408kts
06-Jul-18 12:36 33.502777 -117.150933 92 29683ft 415kts
06-Jul-18 12:37 33.501093 -117.012929 92 30931ft 414kts
06-Jul-18 12:38 33.499214 -116.875860 92 32052ft 413kts
06-Jul-18 12:39 33.497137 -116.738908 92 32991ft 414kts
06-Jul-18 12:40 33.494796 -116.597981 92 32981ft 439kts
06-Jul-18 12:41 33.492132 -116.448882 92 32906ft 451kts
06-Jul-18 12:42 33.489906 -116.300683 92 32896ft 451kts
06-Jul-18 12:43 33.487617 -116.151117 92 32897ft 450kts
06-Jul-18 12:44 33.495544 -116.002566 73 32928ft 454kts
06-Jul-18 12:45 33.536702 -115.860156 72 32900ft 453kts
06-Jul-18 12:46 33.578144 -115.717948 71 32897ft 453kts
06-Jul-18 12:47 33.619337 -115.575908 71 32897ft 451kts
06-Jul-18 12:48 33.657610 -115.434173 92 32898ft 447kts
06-Jul-18 12:49 33.608151 -115.302577 99 32999ft 444kts
06-Jul-18 12:50 33.614068 -115.154241 91 32967ft 446kts
06-Jul-18 12:51 33.609478 -115.008711 94 32971ft 426kts
06-Jul-18 12:52 33.602635 -114.862942 92 32970ft 446kts
06-Jul-18 12:53 33.589201 -114.715939 103 32970ft 442kts
06-Jul-18 12:54 33.560946 -114.573004 103 32965ft 442kts
06-Jul-18 12:55 33.532341 -114.428746 103 31604ft 451kts
06-Jul-18 12:56 33.505779 -114.294664 104 28924ft 413kts
06-Jul-18 12:57 33.479791 -114.164177 103 26483ft 398kts
06-Jul-18 12:58 33.454503 -114.037672 104 24665ft 388kts
06-Jul-18 12:59 33.429460 -113.913350 104 23632ft 383kts
06-Jul-18 13:01 33.404827 -113.791254 103 22347ft 375kts
06-Jul-18 13:02 33.380650 -113.671901 103 21193ft 367kts
06-Jul-18 13:03 33.356610 -113.553823 103 19974ft 360kts
06-Jul-18 13:04 33.333271 -113.437601 101 18781ft 358kts
06-Jul-18 13:05 33.313356 -113.322894 101 17603ft 352kts
06-Jul-18 13:06 33.284480 -113.214879 137 16887ft 352kts
06-Jul-18 13:07 33.223985 -113.130306 90 16872ft 330kts
06-Jul-18 13:08 33.268473 -113.036236 62 16844ft 330kts
06-Jul-18 13:09 33.280205 -112.928377 88 13827ft 329kts
06-Jul-18 13:10 33.282108 -112.828695 81 12177ft 282kts
06-Jul-18 13:11 33.309585 -112.745584 67 11112ft 256kts
06-Jul-18 13:12 33.338978 -112.667307 67 10099ft 256kts
06-Jul-18 13:13 33.367808 -112.591753 67 9126ft 240kts
06-Jul-18 13:14 33.395121 -112.520037 67 8213ft 235kts
06-Jul-18 13:15 33.420615 -112.449654 68 7299ft 229kts
06-Jul-18 13:16 33.429242 -112.376145 90 6286ft 227kts
06-Jul-18 13:17 33.428780 -112.304107 90 5381ft 220kts
06-Jul-18 13:18 33.428760 -112.232574 90 4559ft 204kts
06-Jul-18 13:19 33.428835 -112.167014 90 3452ft 189kts
06-Jul-18 13:20 33.428898 -112.110679 92 2540ft 145kts
06-Jul-18 13:21 33.428881 -112.062648 94 1753ft 150kts
06-Jul-18 13:22 33.428851 -112.016666 90 1142ft 72kts
06-Jul-18 13:23 33.429370 -112.007871 42 1142ft 7kts
06-Jul-18 13:24 33.429777 -112.007586 29 1142ft 0kts
06-Jul-18 13:25 33.429819 -112.007542 43 1142ft 2kts
06-Jul-18 13:26 33.429964 -112.003868 85 1142ft 11kts
06-Jul-18 13:27 33.431983 -112.003405 322 1142ft 9kts
06-Jul-18 13:28 33.432844 -112.002140 91 1142ft 11kts
06-Jul-18 13:29 33.432903 -111.999490 37 1142ft 0kts
06-Jul-18 13:30 33.433307 -111.999435 1 1142ft 0kts
06-Jul-18 13:31 33.433413 -111.999433 0 1142ft 0kts
06-Jul-18 13:32 33.433413 -111.999433 0 1142ft 0kts
06-Jul-18 13:33 33.433413 -111.999433 0 1142ft 0kts

Navigation Log

Ident Type
Flight plan parsing failed, navigation log unavailable